sensor_id;sensor_type;location;lat;lon;timestamp;temperature;humidity
74171;DHT22;62526;50.948;6.590;2022-11-15T00:02:26;10.60;97.90
74171;DHT22;62526;50.948;6.590;2022-11-15T00:04:53;10.60;98.00
74171;DHT22;62526;50.948;6.590;2022-11-15T00:07:19;10.60;98.20
74171;DHT22;62526;50.948;6.590;2022-11-15T00:09:46;10.60;98.50
74171;DHT22;62526;50.948;6.590;2022-11-15T00:12:13;10.80;99.10
74171;DHT22;62526;50.948;6.590;2022-11-15T00:14:40;10.70;99.10
74171;DHT22;62526;50.948;6.590;2022-11-15T00:17:07;10.80;99.30
74171;DHT22;62526;50.948;6.590;2022-11-15T00:19:34;11.10;99.70
74171;DHT22;62526;50.948;6.590;2022-11-15T00:22:01;11.10;99.70
74171;DHT22;62526;50.948;6.590;2022-11-15T00:24:27;11.20;99.80
74171;DHT22;62526;50.948;6.590;2022-11-15T00:26:54;11.30;99.70
74171;DHT22;62526;50.948;6.590;2022-11-15T00:29:21;11.50;99.70
74171;DHT22;62526;50.948;6.590;2022-11-15T00:31:47;11.60;99.60
74171;DHT22;62526;50.948;6.590;2022-11-15T00:34:14;11.60;99.40
74171;DHT22;62526;50.948;6.590;2022-11-15T00:36:41;11.70;99.30
74171;DHT22;62526;50.948;6.590;2022-11-15T00:39:09;11.80;99.20
74171;DHT22;62526;50.948;6.590;2022-11-15T00:41:35;11.80;99.10
74171;DHT22;62526;50.948;6.590;2022-11-15T00:44:02;11.90;99.10
74171;DHT22;62526;50.948;6.590;2022-11-15T00:46:28;11.90;98.90
74171;DHT22;62526;50.948;6.590;2022-11-15T00:48:55;12.00;98.90
74171;DHT22;62526;50.948;6.590;2022-11-15T00:51:22;12.00;98.80
74171;DHT22;62526;50.948;6.590;2022-11-15T00:53:51;12.00;98.60
74171;DHT22;62526;50.948;6.590;2022-11-15T00:56:18;12.00;98.50
74171;DHT22;62526;50.948;6.590;2022-11-15T00:58:45;12.00;98.20
74171;DHT22;62526;50.948;6.590;2022-11-15T01:01:12;11.90;98.10
74171;DHT22;62526;50.948;6.590;2022-11-15T01:03:39;11.90;98.20
74171;DHT22;62526;50.948;6.590;2022-11-15T01:06:06;11.70;98.30
74171;DHT22;62526;50.948;6.590;2022-11-15T01:08:33;11.70;98.30
74171;DHT22;62526;50.948;6.590;2022-11-15T01:11:03;11.70;98.40
74171;DHT22;62526;50.948;6.590;2022-11-15T01:13:30;11.70;98.50
74171;DHT22;62526;50.948;6.590;2022-11-15T01:15:56;11.60;98.60
74171;DHT22;62526;50.948;6.590;2022-11-15T01:18:23;11.60;98.70
74171;DHT22;62526;50.948;6.590;2022-11-15T01:20:49;11.60;98.80
74171;DHT22;62526;50.948;6.590;2022-11-15T01:23:17;11.50;98.90
74171;DHT22;62526;50.948;6.590;2022-11-15T01:25:44;11.50;99.00
74171;DHT22;62526;50.948;6.590;2022-11-15T01:28:11;11.50;99.30
74171;DHT22;62526;50.948;6.590;2022-11-15T01:30:37;11.50;99.10
74171;DHT22;62526;50.948;6.590;2022-11-15T01:33:04;11.60;99.20
74171;DHT22;62526;50.948;6.590;2022-11-15T01:35:31;11.60;99.20
74171;DHT22;62526;50.948;6.590;2022-11-15T01:37:57;11.60;99.30
74171;DHT22;62526;50.948;6.590;2022-11-15T01:40:24;11.60;99.70
74171;DHT22;62526;50.948;6.590;2022-11-15T01:42:51;11.60;99.30
74171;DHT22;62526;50.948;6.590;2022-11-15T01:45:17;11.70;99.30
74171;DHT22;62526;50.948;6.590;2022-11-15T01:47:47;11.60;99.30
74171;DHT22;62526;50.948;6.590;2022-11-15T01:50:14;11.70;99.30
74171;DHT22;62526;50.948;6.590;2022-11-15T01:52:39;11.70;99.30
74171;DHT22;62526;50.948;6.590;2022-11-15T01:55:09;11.70;99.20
74171;DHT22;62526;50.948;6.590;2022-11-15T01:57:34;11.70;99.20
74171;DHT22;62526;50.948;6.590;2022-11-15T02:00:03;11.70;99.20
74171;DHT22;62526;50.948;6.590;2022-11-15T02:02:28;11.70;99.20
74171;DHT22;62526;50.948;6.590;2022-11-15T02:04:55;11.70;99.20
74171;DHT22;62526;50.948;6.590;2022-11-15T02:07:22;11.80;99.30
74171;DHT22;62526;50.948;6.590;2022-11-15T02:09:49;11.80;99.20
74171;DHT22;62526;50.948;6.590;2022-11-15T02:12:18;11.80;99.20
74171;DHT22;62526;50.948;6.590;2022-11-15T02:14:44;11.80;99.20
74171;DHT22;62526;50.948;6.590;2022-11-15T02:17:37;11.90;99.20
74171;DHT22;62526;50.948;6.590;2022-11-15T02:20:21;11.90;99.20
74171;DHT22;62526;50.948;6.590;2022-11-15T02:25:37;11.90;99.30
74171;DHT22;62526;50.948;6.590;2022-11-15T02:28:27;11.90;99.30
74171;DHT22;62526;50.948;6.590;2022-11-15T02:31:10;11.90;99.40
74171;DHT22;62526;50.948;6.590;2022-11-15T02:33:48;11.80;99.30
74171;DHT22;62526;50.948;6.590;2022-11-15T02:36:18;11.80;99.30
74171;DHT22;62526;50.948;6.590;2022-11-15T02:38:46;11.80;99.30
74171;DHT22;62526;50.948;6.590;2022-11-15T02:41:30;11.80;99.30
74171;DHT22;62526;50.948;6.590;2022-11-15T02:43:59;11.80;99.30
74171;DHT22;62526;50.948;6.590;2022-11-15T02:46:40;11.80;99.30
74171;DHT22;62526;50.948;6.590;2022-11-15T02:49:11;11.80;99.30
74171;DHT22;62526;50.948;6.590;2022-11-15T02:51:38;11.80;99.30
74171;DHT22;62526;50.948;6.590;2022-11-15T02:54:04;11.80;99.50
74171;DHT22;62526;50.948;6.590;2022-11-15T02:56:31;11.80;99.60
74171;DHT22;62526;50.948;6.590;2022-11-15T03:01:51;11.90;99.50
74171;DHT22;62526;50.948;6.590;2022-11-15T03:04:23;11.90;99.40
74171;DHT22;62526;50.948;6.590;2022-11-15T03:06:53;11.90;99.50
74171;DHT22;62526;50.948;6.590;2022-11-15T03:09:28;11.90;99.50
74171;DHT22;62526;50.948;6.590;2022-11-15T03:11:56;11.90;99.50
74171;DHT22;62526;50.948;6.590;2022-11-15T03:14:22;12.00;99.50
74171;DHT22;62526;50.948;6.590;2022-11-15T03:17:23;12.00;99.50
74171;DHT22;62526;50.948;6.590;2022-11-15T03:19:50;12.00;99.50
74171;DHT22;62526;50.948;6.590;2022-11-15T03:22:17;12.00;99.40
74171;DHT22;62526;50.948;6.590;2022-11-15T03:24:43;12.00;99.50
74171;DHT22;62526;50.948;6.590;2022-11-15T03:27:10;12.00;99.50
74171;DHT22;62526;50.948;6.590;2022-11-15T03:29:37;12.00;99.50
74171;DHT22;62526;50.948;6.590;2022-11-15T03:32:06;12.10;99.50
74171;DHT22;62526;50.948;6.590;2022-11-15T03:34:49;12.10;99.80
74171;DHT22;62526;50.948;6.590;2022-11-15T03:37:14;12.10;99.50
74171;DHT22;62526;50.948;6.590;2022-11-15T03:39:41;12.10;99.40
74171;DHT22;62526;50.948;6.590;2022-11-15T03:42:27;12.10;99.30
74171;DHT22;62526;50.948;6.590;2022-11-15T03:45:25;12.10;99.30
74171;DHT22;62526;50.948;6.590;2022-11-15T03:47:34;12.10;99.30
74171;DHT22;62526;50.948;6.590;2022-11-15T03:50:03;12.10;99.40
74171;DHT22;62526;50.948;6.590;2022-11-15T03:52:30;12.10;99.40
74171;DHT22;62526;50.948;6.590;2022-11-15T03:54:55;12.10;99.50
74171;DHT22;62526;50.948;6.590;2022-11-15T03:57:22;12.10;99.50
74171;DHT22;62526;50.948;6.590;2022-11-15T03:59:48;12.20;99.50
74171;DHT22;62526;50.948;6.590;2022-11-15T04:02:16;12.20;99.50
74171;DHT22;62526;50.948;6.590;2022-11-15T04:04:42;12.20;99.50
74171;DHT22;62526;50.948;6.590;2022-11-15T04:07:08;12.20;99.60
74171;DHT22;62526;50.948;6.590;2022-11-15T04:09:36;12.30;99.70
74171;DHT22;62526;50.948;6.590;2022-11-15T04:12:04;12.20;99.60
74171;DHT22;62526;50.948;6.590;2022-11-15T04:14:31;12.30;99.50
74171;DHT22;62526;50.948;6.590;2022-11-15T04:16:57;12.30;99.50
74171;DHT22;62526;50.948;6.590;2022-11-15T04:19:24;12.20;99.40
74171;DHT22;62526;50.948;6.590;2022-11-15T04:21:56;12.20;99.40
74171;DHT22;62526;50.948;6.590;2022-11-15T04:24:29;12.10;99.40
74171;DHT22;62526;50.948;6.590;2022-11-15T04:26:55;12.10;99.50
74171;DHT22;62526;50.948;6.590;2022-11-15T04:29:22;12.00;99.50
74171;DHT22;62526;50.948;6.590;2022-11-15T04:32:02;11.90;99.60
74171;DHT22;62526;50.948;6.590;2022-11-15T04:34:28;11.90;99.70
74171;DHT22;62526;50.948;6.590;2022-11-15T04:36:54;11.90;99.80
74171;DHT22;62526;50.948;6.590;2022-11-15T04:39:27;12.00;99.90
74171;DHT22;62526;50.948;6.590;2022-11-15T04:41:53;12.00;99.80
74171;DHT22;62526;50.948;6.590;2022-11-15T04:44:20;12.00;99.80
74171;DHT22;62526;50.948;6.590;2022-11-15T04:46:46;12.10;99.70
74171;DHT22;62526;50.948;6.590;2022-11-15T04:49:13;12.20;99.70
74171;DHT22;62526;50.948;6.590;2022-11-15T04:51:40;12.20;99.60
74171;DHT22;62526;50.948;6.590;2022-11-15T04:54:06;12.20;99.50
74171;DHT22;62526;50.948;6.590;2022-11-15T04:56:33;12.20;99.40
74171;DHT22;62526;50.948;6.590;2022-11-15T04:59:00;12.30;99.30
74171;DHT22;62526;50.948;6.590;2022-11-15T05:01:27;12.30;99.20
74171;DHT22;62526;50.948;6.590;2022-11-15T05:03:54;12.30;99.20
74171;DHT22;62526;50.948;6.590;2022-11-15T05:06:26;12.30;99.20
74171;DHT22;62526;50.948;6.590;2022-11-15T05:08:53;12.40;99.10
74171;DHT22;62526;50.948;6.590;2022-11-15T05:11:19;12.30;99.10
74171;DHT22;62526;50.948;6.590;2022-11-15T05:13:46;12.40;99.20
74171;DHT22;62526;50.948;6.590;2022-11-15T05:16:13;12.40;99.10
74171;DHT22;62526;50.948;6.590;2022-11-15T05:18:40;12.40;99.10
74171;DHT22;62526;50.948;6.590;2022-11-15T05:21:07;12.40;99.00
74171;DHT22;62526;50.948;6.590;2022-11-15T05:23:33;12.40;98.90
74171;DHT22;62526;50.948;6.590;2022-11-15T05:26:01;12.40;98.80
74171;DHT22;62526;50.948;6.590;2022-11-15T05:28:27;12.50;99.10
74171;DHT22;62526;50.948;6.590;2022-11-15T05:31:00;12.50;98.80
74171;DHT22;62526;50.948;6.590;2022-11-15T05:33:21;12.50;98.50
74171;DHT22;62526;50.948;6.590;2022-11-15T05:35:50;12.50;98.50
74171;DHT22;62526;50.948;6.590;2022-11-15T05:38:15;12.50;98.40
74171;DHT22;62526;50.948;6.590;2022-11-15T05:40:42;12.40;98.30
74171;DHT22;62526;50.948;6.590;2022-11-15T05:43:08;12.40;98.30
74171;DHT22;62526;50.948;6.590;2022-11-15T05:45:35;12.30;98.30
74171;DHT22;62526;50.948;6.590;2022-11-15T05:48:03;12.30;98.50
74171;DHT22;62526;50.948;6.590;2022-11-15T05:50:28;12.20;98.60
74171;DHT22;62526;50.948;6.590;2022-11-15T05:52:55;12.20;98.70
74171;DHT22;62526;50.948;6.590;2022-11-15T05:55:22;12.10;98.80
74171;DHT22;62526;50.948;6.590;2022-11-15T05:57:48;12.00;98.90
74171;DHT22;62526;50.948;6.590;2022-11-15T06:00:16;11.90;99.10
74171;DHT22;62526;50.948;6.590;2022-11-15T06:02:42;11.90;99.20
74171;DHT22;62526;50.948;6.590;2022-11-15T06:05:09;11.80;99.30
74171;DHT22;62526;50.948;6.590;2022-11-15T06:07:35;11.70;99.30
74171;DHT22;62526;50.948;6.590;2022-11-15T06:10:02;11.60;99.30
74171;DHT22;62526;50.948;6.590;2022-11-15T06:12:29;11.50;99.30
74171;DHT22;62526;50.948;6.590;2022-11-15T06:14:56;11.40;99.40
74171;DHT22;62526;50.948;6.590;2022-11-15T06:17:22;11.40;99.40
74171;DHT22;62526;50.948;6.590;2022-11-15T06:19:49;11.30;99.40
74171;DHT22;62526;50.948;6.590;2022-11-15T06:22:15;11.30;99.60
74171;DHT22;62526;50.948;6.590;2022-11-15T06:24:42;11.20;99.50
74171;DHT22;62526;50.948;6.590;2022-11-15T06:27:10;11.20;99.90
74171;DHT22;62526;50.948;6.590;2022-11-15T06:29:35;11.10;99.60
74171;DHT22;62526;50.948;6.590;2022-11-15T06:32:02;11.10;99.50
74171;DHT22;62526;50.948;6.590;2022-11-15T06:34:28;11.10;99.50
74171;DHT22;62526;50.948;6.590;2022-11-15T06:36:55;11.00;99.40
74171;DHT22;62526;50.948;6.590;2022-11-15T06:39:22;11.00;99.40
74171;DHT22;62526;50.948;6.590;2022-11-15T06:41:48;11.00;99.30
74171;DHT22;62526;50.948;6.590;2022-11-15T06:44:15;11.00;99.20
74171;DHT22;62526;50.948;6.590;2022-11-15T06:46:42;11.00;99.10
74171;DHT22;62526;50.948;6.590;2022-11-15T06:49:09;11.00;99.00
74171;DHT22;62526;50.948;6.590;2022-11-15T06:51:35;11.00;98.80
74171;DHT22;62526;50.948;6.590;2022-11-15T06:54:02;11.10;98.60
74171;DHT22;62526;50.948;6.590;2022-11-15T06:56:29;11.10;98.50
74171;DHT22;62526;50.948;6.590;2022-11-15T06:58:56;11.10;98.30
74171;DHT22;62526;50.948;6.590;2022-11-15T07:01:23;11.20;98.20
74171;DHT22;62526;50.948;6.590;2022-11-15T07:03:50;11.20;98.10
74171;DHT22;62526;50.948;6.590;2022-11-15T07:06:17;11.20;98.00
74171;DHT22;62526;50.948;6.590;2022-11-15T07:08:43;11.30;97.90
74171;DHT22;62526;50.948;6.590;2022-11-15T07:11:10;11.30;97.80
74171;DHT22;62526;50.948;6.590;2022-11-15T07:13:37;11.30;97.80
74171;DHT22;62526;50.948;6.590;2022-11-15T07:16:05;11.30;97.70
74171;DHT22;62526;50.948;6.590;2022-11-15T07:18:34;11.30;97.60
74171;DHT22;62526;50.948;6.590;2022-11-15T07:21:01;11.40;97.60
74171;DHT22;62526;50.948;6.590;2022-11-15T07:23:28;11.40;97.40
74171;DHT22;62526;50.948;6.590;2022-11-15T07:25:55;11.40;97.40
74171;DHT22;62526;50.948;6.590;2022-11-15T07:28:21;11.50;97.20
74171;DHT22;62526;50.948;6.590;2022-11-15T07:30:47;11.50;97.10
74171;DHT22;62526;50.948;6.590;2022-11-15T07:33:14;11.50;97.00
74171;DHT22;62526;50.948;6.590;2022-11-15T07:35:41;11.40;96.90
74171;DHT22;62526;50.948;6.590;2022-11-15T07:38:07;11.40;96.90
74171;DHT22;62526;50.948;6.590;2022-11-15T07:40:34;11.40;96.80
74171;DHT22;62526;50.948;6.590;2022-11-15T07:43:03;11.40;96.60
74171;DHT22;62526;50.948;6.590;2022-11-15T07:45:29;11.50;96.10
74171;DHT22;62526;50.948;6.590;2022-11-15T07:47:55;11.50;96.20
74171;DHT22;62526;50.948;6.590;2022-11-15T07:50:23;11.60;96.00
74171;DHT22;62526;50.948;6.590;2022-11-15T07:52:53;11.60;95.90
74171;DHT22;62526;50.948;6.590;2022-11-15T07:55:16;11.60;95.70
74171;DHT22;62526;50.948;6.590;2022-11-15T07:57:43;11.60;95.70
74171;DHT22;62526;50.948;6.590;2022-11-15T08:00:10;11.60;95.60
74171;DHT22;62526;50.948;6.590;2022-11-15T08:02:37;11.50;95.50
74171;DHT22;62526;50.948;6.590;2022-11-15T08:05:04;11.50;95.60
74171;DHT22;62526;50.948;6.590;2022-11-15T08:07:31;11.40;95.70
74171;DHT22;62526;50.948;6.590;2022-11-15T08:09:59;11.30;95.90
74171;DHT22;62526;50.948;6.590;2022-11-15T08:12:27;11.30;95.90
74171;DHT22;62526;50.948;6.590;2022-11-15T08:14:55;11.30;96.00
74171;DHT22;62526;50.948;6.590;2022-11-15T08:17:22;11.40;96.00
74171;DHT22;62526;50.948;6.590;2022-11-15T08:19:48;11.40;96.00
74171;DHT22;62526;50.948;6.590;2022-11-15T08:22:15;11.40;96.00
74171;DHT22;62526;50.948;6.590;2022-11-15T08:24:42;11.50;96.10
74171;DHT22;62526;50.948;6.590;2022-11-15T08:27:08;11.60;96.10
74171;DHT22;62526;50.948;6.590;2022-11-15T08:29:36;11.70;96.00
74171;DHT22;62526;50.948;6.590;2022-11-15T08:32:02;11.80;95.90
74171;DHT22;62526;50.948;6.590;2022-11-15T08:34:30;12.00;95.50
74171;DHT22;62526;50.948;6.590;2022-11-15T08:36:56;12.00;95.40
74171;DHT22;62526;50.948;6.590;2022-11-15T08:39:23;12.00;95.00
74171;DHT22;62526;50.948;6.590;2022-11-15T08:41:50;12.10;94.70
74171;DHT22;62526;50.948;6.590;2022-11-15T08:44:17;12.10;94.30
74171;DHT22;62526;50.948;6.590;2022-11-15T08:46:45;12.10;94.10
74171;DHT22;62526;50.948;6.590;2022-11-15T08:49:12;12.10;94.00
74171;DHT22;62526;50.948;6.590;2022-11-15T08:51:38;12.10;93.50
74171;DHT22;62526;50.948;6.590;2022-11-15T08:54:05;12.00;93.10
74171;DHT22;62526;50.948;6.590;2022-11-15T08:56:32;12.00;92.70
74171;DHT22;62526;50.948;6.590;2022-11-15T08:58:58;12.00;92.40
74171;DHT22;62526;50.948;6.590;2022-11-15T09:01:25;12.10;92.30
74171;DHT22;62526;50.948;6.590;2022-11-15T09:03:54;12.20;91.90
74171;DHT22;62526;50.948;6.590;2022-11-15T09:06:20;12.20;91.90
74171;DHT22;62526;50.948;6.590;2022-11-15T09:08:48;12.30;91.40
74171;DHT22;62526;50.948;6.590;2022-11-15T09:11:15;12.30;91.30
74171;DHT22;62526;50.948;6.590;2022-11-15T09:13:41;12.30;91.00
74171;DHT22;62526;50.948;6.590;2022-11-15T09:16:08;12.40;91.00
74171;DHT22;62526;50.948;6.590;2022-11-15T09:18:35;12.40;90.80
74171;DHT22;62526;50.948;6.590;2022-11-15T09:21:02;12.40;91.40
74171;DHT22;62526;50.948;6.590;2022-11-15T09:23:29;12.40;91.70
74171;DHT22;62526;50.948;6.590;2022-11-15T09:25:59;12.50;91.80
74171;DHT22;62526;50.948;6.590;2022-11-15T09:28:26;12.50;91.80
74171;DHT22;62526;50.948;6.590;2022-11-15T09:30:55;12.50;92.00
74171;DHT22;62526;50.948;6.590;2022-11-15T09:33:19;12.60;92.10
74171;DHT22;62526;50.948;6.590;2022-11-15T09:35:46;12.50;92.00
74171;DHT22;62526;50.948;6.590;2022-11-15T09:38:13;12.60;92.00
74171;DHT22;62526;50.948;6.590;2022-11-15T09:40:39;12.60;91.90
74171;DHT22;62526;50.948;6.590;2022-11-15T09:45:49;12.70;91.30
74171;DHT22;62526;50.948;6.590;2022-11-15T09:48:21;12.80;91.00
74171;DHT22;62526;50.948;6.590;2022-11-15T09:50:47;12.80;90.40
74171;DHT22;62526;50.948;6.590;2022-11-15T09:53:13;12.80;90.30
74171;DHT22;62526;50.948;6.590;2022-11-15T09:55:46;12.90;90.20
74171;DHT22;62526;50.948;6.590;2022-11-15T10:00:42;13.00;89.40
74171;DHT22;62526;50.948;6.590;2022-11-15T10:03:12;13.10;87.90
74171;DHT22;62526;50.948;6.590;2022-11-15T10:05:43;13.10;86.20
74171;DHT22;62526;50.948;6.590;2022-11-15T10:10:44;13.20;85.70
74171;DHT22;62526;50.948;6.590;2022-11-15T10:13:13;13.30;85.20
74171;DHT22;62526;50.948;6.590;2022-11-15T10:15:38;13.40;84.90
74171;DHT22;62526;50.948;6.590;2022-11-15T10:18:08;13.40;84.10
74171;DHT22;62526;50.948;6.590;2022-11-15T10:20:46;13.50;82.60
74171;DHT22;62526;50.948;6.590;2022-11-15T10:23:10;13.60;81.60
74171;DHT22;62526;50.948;6.590;2022-11-15T10:25:35;13.70;82.10
74171;DHT22;62526;50.948;6.590;2022-11-15T10:28:11;13.70;82.40
74171;DHT22;62526;50.948;6.590;2022-11-15T10:30:37;13.80;81.00
74171;DHT22;62526;50.948;6.590;2022-11-15T10:33:25;13.80;79.30
74171;DHT22;62526;50.948;6.590;2022-11-15T10:35:49;13.80;80.00
74171;DHT22;62526;50.948;6.590;2022-11-15T10:38:15;13.80;80.20
74171;DHT22;62526;50.948;6.590;2022-11-15T10:40:43;13.90;77.40
74171;DHT22;62526;50.948;6.590;2022-11-15T10:43:15;13.90;77.30
74171;DHT22;62526;50.948;6.590;2022-11-15T10:45:39;13.90;77.50
74171;DHT22;62526;50.948;6.590;2022-11-15T10:48:20;14.00;77.00
74171;DHT22;62526;50.948;6.590;2022-11-15T10:50:47;14.10;76.20
74171;DHT22;62526;50.948;6.590;2022-11-15T10:53:22;14.20;73.20
74171;DHT22;62526;50.948;6.590;2022-11-15T10:55:48;14.30;72.00
74171;DHT22;62526;50.948;6.590;2022-11-15T10:58:21;14.40;70.80
74171;DHT22;62526;50.948;6.590;2022-11-15T11:00:47;14.50;70.20
74171;DHT22;62526;50.948;6.590;2022-11-15T11:03:28;14.60;69.20
74171;DHT22;62526;50.948;6.590;2022-11-15T11:05:46;14.60;68.20
74171;DHT22;62526;50.948;6.590;2022-11-15T11:08:28;14.70;67.80
74171;DHT22;62526;50.948;6.590;2022-11-15T11:10:56;14.90;68.90
74171;DHT22;62526;50.948;6.590;2022-11-15T11:13:25;14.90;68.70
74171;DHT22;62526;50.948;6.590;2022-11-15T11:18:38;15.20;67.00
74171;DHT22;62526;50.948;6.590;2022-11-15T11:21:07;15.50;67.30
74171;DHT22;62526;50.948;6.590;2022-11-15T11:23:38;15.60;65.60
74171;DHT22;62526;50.948;6.590;2022-11-15T11:26:15;15.70;65.10
74171;DHT22;62526;50.948;6.590;2022-11-15T11:29:04;15.80;63.80
74171;DHT22;62526;50.948;6.590;2022-11-15T11:31:31;15.80;64.50
74171;DHT22;62526;50.948;6.590;2022-11-15T11:34:19;15.90;64.10
74171;DHT22;62526;50.948;6.590;2022-11-15T11:37:00;16.00;63.00
74171;DHT22;62526;50.948;6.590;2022-11-15T11:39:39;16.00;62.30
74171;DHT22;62526;50.948;6.590;2022-11-15T11:42:03;15.90;62.10
74171;DHT22;62526;50.948;6.590;2022-11-15T11:44:43;15.90;62.30
74171;DHT22;62526;50.948;6.590;2022-11-15T11:47:10;15.90;63.50
74171;DHT22;62526;50.948;6.590;2022-11-15T11:49:54;15.80;63.20
74171;DHT22;62526;50.948;6.590;2022-11-15T11:52:24;15.90;63.90
74171;DHT22;62526;50.948;6.590;2022-11-15T11:55:02;16.00;64.90
74171;DHT22;62526;50.948;6.590;2022-11-15T11:57:35;16.10;64.10
74171;DHT22;62526;50.948;6.590;2022-11-15T12:00:12;16.20;64.00
74171;DHT22;62526;50.948;6.590;2022-11-15T12:02:34;16.10;64.00
74171;DHT22;62526;50.948;6.590;2022-11-15T12:05:04;16.10;64.40
74171;DHT22;62526;50.948;6.590;2022-11-15T12:07:29;16.20;65.40
74171;DHT22;62526;50.948;6.590;2022-11-15T12:10:01;16.20;65.50
74171;DHT22;62526;50.948;6.590;2022-11-15T12:12:36;16.20;67.30
74171;DHT22;62526;50.948;6.590;2022-11-15T12:15:02;16.20;67.00
74171;DHT22;62526;50.948;6.590;2022-11-15T12:17:29;16.30;67.30
74171;DHT22;62526;50.948;6.590;2022-11-15T12:20:00;16.30;66.10
74171;DHT22;62526;50.948;6.590;2022-11-15T12:22:47;16.20;66.80
74171;DHT22;62526;50.948;6.590;2022-11-15T12:25:19;16.20;66.10
74171;DHT22;62526;50.948;6.590;2022-11-15T12:27:46;16.10;66.60
74171;DHT22;62526;50.948;6.590;2022-11-15T12:30:16;16.00;67.50
74171;DHT22;62526;50.948;6.590;2022-11-15T12:32:50;16.00;67.50
74171;DHT22;62526;50.948;6.590;2022-11-15T12:35:21;15.90;68.00
74171;DHT22;62526;50.948;6.590;2022-11-15T12:37:48;15.70;67.60
74171;DHT22;62526;50.948;6.590;2022-11-15T12:40:20;15.50;69.30
74171;DHT22;62526;50.948;6.590;2022-11-15T12:42:59;15.40;69.60
74171;DHT22;62526;50.948;6.590;2022-11-15T12:45:44;15.40;70.20
74171;DHT22;62526;50.948;6.590;2022-11-15T12:51:00;15.30;70.50
74171;DHT22;62526;50.948;6.590;2022-11-15T12:53:28;15.30;71.50
74171;DHT22;62526;50.948;6.590;2022-11-15T12:56:19;15.40;71.90
74171;DHT22;62526;50.948;6.590;2022-11-15T12:58:56;15.40;71.30
74171;DHT22;62526;50.948;6.590;2022-11-15T13:01:52;15.40;71.60
74171;DHT22;62526;50.948;6.590;2022-11-15T13:04:33;15.30;72.20
74171;DHT22;62526;50.948;6.590;2022-11-15T13:06:46;15.40;72.80
74171;DHT22;62526;50.948;6.590;2022-11-15T13:12:58;15.40;73.40
74171;DHT22;62526;50.948;6.590;2022-11-15T13:17:57;15.20;74.00
74171;DHT22;62526;50.948;6.590;2022-11-15T13:20:32;15.20;74.00
74171;DHT22;62526;50.948;6.590;2022-11-15T13:23:02;15.20;74.10
74171;DHT22;62526;50.948;6.590;2022-11-15T13:26:10;15.30;74.40
74171;DHT22;62526;50.948;6.590;2022-11-15T13:31:03;15.30;75.60
74171;DHT22;62526;50.948;6.590;2022-11-15T13:33:33;15.20;75.50
74171;DHT22;62526;50.948;6.590;2022-11-15T13:35:59;15.20;75.50
74171;DHT22;62526;50.948;6.590;2022-11-15T13:38:26;15.30;75.80
74171;DHT22;62526;50.948;6.590;2022-11-15T13:40:52;15.30;75.60
74171;DHT22;62526;50.948;6.590;2022-11-15T13:43:32;15.30;76.10
74171;DHT22;62526;50.948;6.590;2022-11-15T13:46:07;15.30;75.60
74171;DHT22;62526;50.948;6.590;2022-11-15T13:48:33;15.30;75.80
74171;DHT22;62526;50.948;6.590;2022-11-15T13:51:01;15.40;75.80
74171;DHT22;62526;50.948;6.590;2022-11-15T13:53:27;15.40;76.30
74171;DHT22;62526;50.948;6.590;2022-11-15T13:55:54;15.40;76.20
74171;DHT22;62526;50.948;6.590;2022-11-15T13:58:20;15.30;76.60
74171;DHT22;62526;50.948;6.590;2022-11-15T14:00:47;15.30;76.70
74171;DHT22;62526;50.948;6.590;2022-11-15T14:03:21;15.20;77.10
74171;DHT22;62526;50.948;6.590;2022-11-15T14:06:01;15.20;77.90
74171;DHT22;62526;50.948;6.590;2022-11-15T14:08:24;15.10;78.00
74171;DHT22;62526;50.948;6.590;2022-11-15T14:11:09;15.10;78.60
74171;DHT22;62526;50.948;6.590;2022-11-15T14:13:35;15.00;78.50
74171;DHT22;62526;50.948;6.590;2022-11-15T14:16:16;15.00;78.30
74171;DHT22;62526;50.948;6.590;2022-11-15T14:18:44;15.00;78.90
74171;DHT22;62526;50.948;6.590;2022-11-15T14:21:09;15.00;79.50
74171;DHT22;62526;50.948;6.590;2022-11-15T14:23:36;14.90;79.80
74171;DHT22;62526;50.948;6.590;2022-11-15T14:26:03;15.00;80.00
74171;DHT22;62526;50.948;6.590;2022-11-15T14:28:30;15.00;80.20
74171;DHT22;62526;50.948;6.590;2022-11-15T14:30:57;14.90;80.30
74171;DHT22;62526;50.948;6.590;2022-11-15T14:33:30;14.90;80.70
74171;DHT22;62526;50.948;6.590;2022-11-15T14:35:57;14.90;80.60
74171;DHT22;62526;50.948;6.590;2022-11-15T14:38:24;15.00;80.80
74171;DHT22;62526;50.948;6.590;2022-11-15T14:40:50;14.90;80.80
74171;DHT22;62526;50.948;6.590;2022-11-15T14:43:16;14.90;80.80
74171;DHT22;62526;50.948;6.590;2022-11-15T14:45:43;14.90;81.00
74171;DHT22;62526;50.948;6.590;2022-11-15T14:48:10;14.80;81.30
74171;DHT22;62526;50.948;6.590;2022-11-15T14:50:36;14.80;81.70
74171;DHT22;62526;50.948;6.590;2022-11-15T14:53:04;14.70;81.80
74171;DHT22;62526;50.948;6.590;2022-11-15T14:55:32;14.70;82.10
74171;DHT22;62526;50.948;6.590;2022-11-15T14:57:58;14.70;82.00
74171;DHT22;62526;50.948;6.590;2022-11-15T15:00:25;14.70;82.30
74171;DHT22;62526;50.948;6.590;2022-11-15T15:02:53;14.70;82.50
74171;DHT22;62526;50.948;6.590;2022-11-15T15:05:20;14.70;82.90
74171;DHT22;62526;50.948;6.590;2022-11-15T15:07:45;14.60;82.80
74171;DHT22;62526;50.948;6.590;2022-11-15T15:10:12;14.60;83.00
74171;DHT22;62526;50.948;6.590;2022-11-15T15:12:39;14.60;83.30
74171;DHT22;62526;50.948;6.590;2022-11-15T15:15:09;14.50;83.40
74171;DHT22;62526;50.948;6.590;2022-11-15T15:17:33;14.50;83.50
74171;DHT22;62526;50.948;6.590;2022-11-15T15:20:00;14.50;82.90
74171;DHT22;62526;50.948;6.590;2022-11-15T15:22:26;14.50;83.60
74171;DHT22;62526;50.948;6.590;2022-11-15T15:24:53;14.50;83.60
74171;DHT22;62526;50.948;6.590;2022-11-15T15:27:20;14.50;83.60
74171;DHT22;62526;50.948;6.590;2022-11-15T15:29:46;14.50;83.80
74171;DHT22;62526;50.948;6.590;2022-11-15T15:32:13;14.50;83.90
74171;DHT22;62526;50.948;6.590;2022-11-15T15:34:40;14.40;83.80
74171;DHT22;62526;50.948;6.590;2022-11-15T15:39:40;14.40;84.10
74171;DHT22;62526;50.948;6.590;2022-11-15T15:42:06;13.60;83.50
74171;DHT22;62526;50.948;6.590;2022-11-15T15:44:33;14.30;84.50
74171;DHT22;62526;50.948;6.590;2022-11-15T15:47:00;14.30;84.80
74171;DHT22;62526;50.948;6.590;2022-11-15T15:49:27;14.30;84.80
74171;DHT22;62526;50.948;6.590;2022-11-15T15:51:53;14.20;84.90
74171;DHT22;62526;50.948;6.590;2022-11-15T15:54:20;14.20;85.10
74171;DHT22;62526;50.948;6.590;2022-11-15T15:56:47;14.20;85.10
74171;DHT22;62526;50.948;6.590;2022-11-15T15:59:14;14.10;85.60
74171;DHT22;62526;50.948;6.590;2022-11-15T16:01:40;14.10;85.90
74171;DHT22;62526;50.948;6.590;2022-11-15T16:04:07;14.10;86.00
74171;DHT22;62526;50.948;6.590;2022-11-15T16:06:35;14.10;86.20
74171;DHT22;62526;50.948;6.590;2022-11-15T16:09:02;14.00;86.60
74171;DHT22;62526;50.948;6.590;2022-11-15T16:11:28;14.00;86.60